Time;durP1;ratioP1;P1;durP2;ratioP2;P2;SDS_P1;SDS_P2;PMS_P1;PMS_P2;Temp;Humidity;BMP_temperature;BMP_pressure;BME280_temperature;BME280_humidity;BME280_pressure;Samples;Min_cycle;Max_cycle;Signal;HPM_P1;HPM_P2
2023/05/03 00:02:10;;;;;;;4.07;2.05;;;;;;;9.56;100.00;101264.72;5031640;28;20061;-76
2023/05/03 00:04:36;;;;;;;4.13;2.28;;;;;;;9.20;100.00;101258.81;5030233;28;20065;-76
2023/05/03 00:07:02;;;;;;;4.13;2.53;;;;;;;9.20;100.00;101261.44;5026681;28;20445;-76
2023/05/03 00:09:28;;;;;;;6.40;2.63;;;;;;;8.06;100.00;101114.31;5034010;28;20549;-73
2023/05/03 00:11:54;;;;;;;4.65;1.70;;;;;;;8.71;100.00;101247.38;5033766;28;20153;-77
2023/05/03 00:14:20;;;;;;;4.22;3.20;;;;;;;7.70;100.00;101128.34;5033883;28;20056;-76
2023/05/03 00:16:46;;;;;;;4.90;3.22;;;;;;;8.27;100.00;101222.84;5036504;28;20379;-74
2023/05/03 00:19:11;;;;;;;3.72;2.42;;;;;;;7.59;100.00;101117.63;5033032;28;20052;-73
2023/05/03 00:21:37;;;;;;;3.45;2.58;;;;;;;8.22;100.00;101230.56;5041330;28;20545;-75
2023/05/03 00:24:02;;;;;;;4.90;3.28;;;;;;;8.12;100.00;101219.00;5031772;28;20057;-74
2023/05/03 00:26:28;;;;;;;1.88;0.80;;;;;;;7.25;100.00;101061.09;5041331;28;20056;-74
2023/05/03 00:28:54;;;;;;;3.13;1.90;;;;;;;8.15;100.00;101210.38;5033255;28;20610;-75
2023/05/03 00:31:19;;;;;;;9.00;3.08;;;;;;;7.54;100.00;101132.31;5032036;28;20037;-74
2023/05/03 00:33:44;;;;;;;4.03;2.72;;;;;;;7.52;100.00;101097.44;5041634;28;20036;-74
2023/05/03 00:36:12;;;;;;;0.30;0.30;;;;;;;7.99;100.00;101176.03;5026486;28;20469;-74
2023/05/03 00:38:38;;;;;;;0.57;0.40;;;;;;;8.55;100.00;101203.44;5032695;28;20059;-74
2023/05/03 00:41:04;;;;;;;6.32;3.85;;;;;;;8.68;100.00;101215.00;5032852;28;20073;-73
2023/05/03 00:43:32;;;;;;;5.45;3.08;;;;;;;8.59;100.00;101203.53;5037581;28;20130;-75
2023/05/03 00:45:58;;;;;;;7.22;3.28;;;;;;;7.97;100.00;101154.19;5034024;28;20029;-73
2023/05/03 00:48:24;;;;;;;5.53;2.10;;;;;;;8.32;100.00;101221.19;5048643;28;20087;-75
2023/05/03 00:50:52;;;;;;;1.25;0.73;;;;;;;6.95;100.00;100981.28;5039715;28;20485;-75
2023/05/03 00:53:18;;;;;;;5.30;3.55;;;;;;;7.67;100.00;101067.31;5028805;28;20049;-74
2023/05/03 00:55:44;;;;;;;4.38;3.00;;;;;;;7.85;100.00;101074.66;5036763;28;20055;-74
2023/05/03 00:58:10;;;;;;;5.82;3.40;;;;;;;8.61;100.00;101208.75;5028979;28;20108;-74
2023/05/03 01:00:36;;;;;;;0.85;0.40;;;;;;;8.50;100.00;101191.97;5029089;28;20029;-74
2023/05/03 01:03:01;;;;;;;0.50;0.50;;;;;;;7.84;100.00;101144.31;5031057;28;20048;-72
2023/05/03 01:05:37;;;;;;;5.65;3.00;;;;;;;8.10;100.00;101204.13;5027176;28;20066;-76
2023/05/03 01:10:54;;;;;;;5.18;3.30;;;;;;;8.06;100.00;101213.66;5087214;27;20707;-74
2023/05/03 01:13:32;;;;;;;4.05;2.67;;;;;;;8.03;100.00;101196.16;5052101;28;20095;-75
2023/05/03 01:16:28;;;;;;;5.57;3.70;;;;;;;8.08;100.00;101197.97;5046808;28;20063;-75
2023/05/03 01:18:56;;;;;;;1.00;0.70;;;;;;;8.07;100.00;101210.16;5058068;28;20141;-74
2023/05/03 01:21:23;;;;;;;6.28;3.35;;;;;;;7.85;100.00;101185.28;5037017;28;20025;-73
2023/05/03 01:24:20;;;;;;;1.55;1.13;;;;;;;7.82;100.00;101196.53;5027291;28;20042;-73
2023/05/03 01:26:46;;;;;;;5.63;3.08;;;;;;;7.25;100.00;101107.22;5050587;28;20098;-75
2023/05/03 01:29:11;;;;;;;0.40;0.40;;;;;;;7.04;100.00;101089.28;5053520;28;20041;-73
2023/05/03 01:31:42;;;;;;;0.77;0.50;;;;;;;7.88;100.00;101190.56;5051089;28;20052;-75
2023/05/03 01:34:27;;;;;;;1.17;0.50;;;;;;;7.21;100.00;101093.22;5047984;28;20083;-76
2023/05/03 01:36:58;;;;;;;8.50;3.97;;;;;;;6.99;100.00;101065.69;5052609;28;20056;-73
2023/05/03 01:40:00;;;;;;;8.57;4.15;;;;;;;7.56;100.00;101181.94;5027302;28;20061;-75
2023/05/03 01:42:26;;;;;;;6.75;3.45;;;;;;;7.45;100.00;101171.25;4996977;28;20075;-74
2023/05/03 01:44:54;;;;;;;1.75;0.90;;;;;;;7.47;100.00;101172.19;5044279;28;20049;-75
2023/05/03 01:47:20;;;;;;;6.53;4.18;;;;;;;6.74;100.00;101058.97;5040400;28;20064;-75
2023/05/03 01:49:45;;;;;;;5.05;3.50;;;;;;;6.67;100.00;101042.31;5044625;28;20045;-72
2023/05/03 01:52:11;;;;;;;6.50;4.13;;;;;;;6.52;100.00;101014.09;5044542;28;20464;-75
2023/05/03 01:54:36;;;;;;;0.65;0.65;;;;;;;7.15;100.00;101142.66;5024076;28;20030;-73
2023/05/03 01:57:02;;;;;;;7.88;4.25;;;;;;;7.32;100.00;101153.50;5033453;28;20461;-74
2023/05/03 01:59:27;;;;;;;0.63;0.35;;;;;;;7.16;100.00;101155.75;5029356;28;20049;-73
2023/05/03 02:01:53;;;;;;;5.10;3.67;;;;;;;6.46;100.00;101026.06;5020350;28;20045;-73
2023/05/03 02:04:18;;;;;;;2.33;1.27;;;;;;;6.48;100.00;101021.78;5027547;28;20069;-72
2023/05/03 02:06:44;;;;;;;8.15;4.68;;;;;;;7.26;100.00;101133.38;5026861;28;20037;-74
2023/05/03 02:09:10;;;;;;;0.60;0.55;;;;;;;7.10;100.00;101132.09;5040228;28;20049;-75
2023/05/03 02:11:35;;;;;;;0.40;0.35;;;;;;;6.48;100.00;101034.81;5050069;28;20131;-74
2023/05/03 02:14:01;;;;;;;1.20;1.10;;;;;;;7.08;100.00;101143.34;5048564;28;20088;-74
2023/05/03 02:16:26;;;;;;;0.90;0.70;;;;;;;6.94;100.00;101129.94;5043767;28;20148;-72
2023/05/03 02:18:53;;;;;;;0.43;0.30;;;;;;;6.32;100.00;101010.97;5043507;28;20041;-74
2023/05/03 02:21:18;;;;;;;1.02;0.93;;;;;;;6.26;100.00;100986.47;5039587;28;20116;-73
2023/05/03 02:23:44;;;;;;;0.80;0.47;;;;;;;6.37;100.00;101018.91;5029747;28;20659;-74
2023/05/03 02:26:09;;;;;;;0.40;0.40;;;;;;;6.31;100.00;100995.28;5028682;28;20112;-75
2023/05/03 02:28:35;;;;;;;0.80;0.73;;;;;;;6.21;100.00;100983.72;5018600;28;20053;-75
2023/05/03 02:31:01;;;;;;;2.05;1.17;;;;;;;6.29;100.00;101008.25;5007238;28;20034;-75
2023/05/03 02:33:27;;;;;;;7.13;4.05;;;;;;;6.51;100.00;101041.00;5020268;28;20034;-74
2023/05/03 02:35:56;;;;;;;8.93;5.78;;;;;;;6.95;100.00;101113.41;5010600;28;20085;-74
2023/05/03 02:38:21;;;;;;;1.38;0.90;;;;;;;6.15;100.00;100985.28;5029600;28;21394;-74
2023/05/03 02:40:47;;;;;;;0.85;0.73;;;;;;;6.87;100.00;101112.34;5028864;28;20045;-75
2023/05/03 02:43:12;;;;;;;1.05;0.57;;;;;;;6.23;100.00;100968.16;5033071;28;20049;-75
2023/05/03 02:45:38;;;;;;;0.85;0.73;;;;;;;6.36;100.00;101009.31;5030393;28;20044;-73
2023/05/03 02:48:03;;;;;;;1.05;0.95;;;;;;;6.85;100.00;101104.47;5018456;28;20042;-75
2023/05/03 02:50:29;;;;;;;0.80;0.63;;;;;;;6.67;100.00;101084.03;5011678;28;20068;-74
2023/05/03 02:52:54;;;;;;;1.75;1.55;;;;;;;6.75;100.00;101086.81;5033925;28;20068;-73
2023/05/03 02:55:20;;;;;;;2.08;1.15;;;;;;;6.04;100.00;100975.47;5039355;28;20377;-73
2023/05/03 02:57:46;;;;;;;10.38;4.70;;;;;;;6.79;100.00;101101.72;5051444;28;20033;-74
2023/05/03 03:00:14;;;;;;;2.58;0.52;;;;;;;6.75;100.00;101089.44;5033966;28;20480;-75
2023/05/03 03:02:39;;;;;;;3.38;2.67;;;;;;;6.79;100.00;101122.59;5032158;28;20057;-74
2023/05/03 03:05:05;;;;;;;2.25;2.05;;;;;;;6.72;100.00;101105.00;5039664;28;20512;-74
2023/05/03 03:07:31;;;;;;;4.10;1.63;;;;;;;6.55;100.00;101079.38;5012649;28;20045;-75
2023/05/03 03:09:57;;;;;;;1.30;0.75;;;;;;;6.56;100.00;101098.50;5014528;28;20065;-74
2023/05/03 03:12:22;;;;;;;1.38;1.15;;;;;;;5.52;100.00;100903.66;5020518;28;20042;-73
2023/05/03 03:14:49;;;;;;;1.17;0.60;;;;;;;6.61;100.00;101094.28;5020447;28;20056;-73
2023/05/03 03:17:15;;;;;;;0.40;0.40;;;;;;;6.71;100.00;101104.09;5012153;28;20512;-73
2023/05/03 03:19:40;;;;;;;0.55;0.43;;;;;;;6.68;100.00;101074.47;5016326;28;20045;-73
2023/05/03 03:22:06;;;;;;;4.03;2.83;;;;;;;6.54;100.00;101069.75;5037811;28;20056;-73
2023/05/03 03:24:32;;;;;;;1.85;1.20;;;;;;;6.54;100.00;101051.50;5036010;28;20034;-73
2023/05/03 03:26:57;;;;;;;0.60;0.55;;;;;;;6.21;100.00;100980.25;5029019;28;20064;-74
2023/05/03 03:29:23;;;;;;;0.77;0.60;;;;;;;6.42;100.00;101032.06;5035511;28;20071;-73
2023/05/03 03:31:49;;;;;;;0.73;0.57;;;;;;;6.08;100.00;100968.59;5025994;28;20061;-74
2023/05/03 03:34:14;;;;;;;1.58;1.02;;;;;;;5.99;100.00;100950.09;5031579;28;20041;-74
2023/05/03 03:36:40;;;;;;;1.30;0.70;;;;;;;6.31;100.00;101013.50;5030642;28;20071;-73
2023/05/03 03:39:06;;;;;;;0.40;0.40;;;;;;;5.67;100.00;100869.38;5011573;28;20524;-73
2023/05/03 03:41:32;;;;;;;1.10;0.95;;;;;;;6.70;100.00;101042.38;5008819;28;20046;-74
2023/05/03 03:43:57;;;;;;;8.18;4.57;;;;;;;6.16;100.00;100968.78;5006176;28;20517;-74
2023/05/03 03:46:23;;;;;;;1.50;1.40;;;;;;;6.62;100.00;101043.00;5022988;28;20044;-73
2023/05/03 03:48:49;;;;;;;2.03;1.92;;;;;;;6.16;100.00;100945.34;5032552;28;20488;-74
2023/05/03 03:51:14;;;;;;;3.10;1.75;;;;;;;6.25;100.00;100969.94;5030425;28;20059;-74
2023/05/03 03:53:40;;;;;;;5.32;4.82;;;;;;;6.94;100.00;101068.19;5011753;28;20149;-73
2023/05/03 03:56:06;;;;;;;0.40;0.40;;;;;;;6.53;100.00;100955.91;5010390;28;20054;-74
2023/05/03 03:58:32;;;;;;;1.23;0.73;;;;;;;6.68;100.00;100999.72;5016576;28;20060;-74
2023/05/03 04:00:59;;;;;;;1.38;1.00;;;;;;;6.84;100.00;100997.50;5008668;28;20524;-75
2023/05/03 04:03:25;;;;;;;1.27;0.73;;;;;;;6.73;100.00;100963.31;5004861;28;20083;-73
2023/05/03 04:05:51;;;;;;;2.25;1.10;;;;;;;7.58;100.00;101107.13;5031293;28;20425;-73
2023/05/03 04:08:16;;;;;;;7.82;5.50;;;;;;;6.97;100.00;100986.50;5026313;28;20049;-74
2023/05/03 04:10:42;;;;;;;6.60;4.03;;;;;;;7.69;100.00;101126.56;5029649;28;20049;-74
2023/05/03 04:13:08;;;;;;;0.68;0.68;;;;;;;6.97;100.00;100979.56;5058056;28;20072;-73
2023/05/03 04:15:33;;;;;;;1.00;0.63;;;;;;;7.71;100.00;101116.16;5031610;28;20390;-73
2023/05/03 04:17:59;;;;;;;1.08;0.98;;;;;;;7.54;100.00;101090.53;5036645;28;20045;-73
2023/05/03 04:20:24;;;;;;;1.98;1.60;;;;;;;6.99;100.00;100997.84;5033891;28;20556;-74
2023/05/03 04:22:50;;;;;;;1.35;1.25;;;;;;;6.95;100.00;100964.72;5030290;28;20068;-73
2023/05/03 04:25:18;;;;;;;0.63;0.55;;;;;;;7.79;100.00;101112.84;5028790;28;20385;-74
2023/05/03 04:27:44;;;;;;;1.30;1.20;;;;;;;7.54;100.00;101089.66;5017805;28;20119;-74
2023/05/03 04:30:13;;;;;;;0.82;0.77;;;;;;;7.11;100.00;101011.19;5028777;28;20394;-74
2023/05/03 04:32:39;;;;;;;6.82;4.88;;;;;;;6.83;100.00;100952.25;5027503;28;20085;-75
2023/05/03 04:35:09;;;;;;;8.82;6.28;;;;;;;7.71;100.00;101096.13;5029083;28;20057;-73
2023/05/03 04:37:35;;;;;;;3.80;3.50;;;;;;;7.78;100.00;101105.00;5000063;28;20461;-73
2023/05/03 04:40:03;;;;;;;1.38;1.17;;;;;;;7.32;100.00;101002.97;5007212;28;20477;-74
2023/05/03 04:42:29;;;;;;;8.55;5.82;;;;;;;8.20;100.00;101112.88;5007078;28;20060;-73
2023/05/03 04:44:54;;;;;;;8.23;5.05;;;;;;;7.47;100.00;100992.00;5011550;28;20041;-75
2023/05/03 04:47:20;;;;;;;0.63;0.52;;;;;;;8.38;100.00;101142.88;5029981;28;20413;-74
2023/05/03 04:49:46;;;;;;;10.05;5.28;;;;;;;8.81;100.00;101156.84;5029361;28;20370;-74
2023/05/03 04:52:11;;;;;;;0.68;0.63;;;;;;;8.71;100.00;101119.16;5022632;28;20445;-74
2023/05/03 04:54:36;;;;;;;12.32;5.18;;;;;;;9.07;100.00;101158.22;5007248;28;20033;-75
2023/05/03 04:57:02;;;;;;;8.57;6.00;;;;;;;8.79;100.00;101135.88;5013581;28;20046;-74
2023/05/03 04:59:28;;;;;;;7.05;4.63;;;;;;;8.76;100.00;101169.84;5006663;28;20506;-75
2023/05/03 05:01:53;;;;;;;11.70;6.45;;;;;;;8.36;100.00;101081.84;5007542;28;20053;-75
2023/05/03 05:04:18;;;;;;;11.27;5.55;;;;;;;9.16;100.00;101188.03;5022717;28;20758;-72
2023/05/03 05:06:44;;;;;;;8.30;5.78;;;;;;;8.68;100.00;101072.00;5017904;28;20037;-74
2023/05/03 05:09:24;;;;;;;9.05;6.00;;;;;;;8.57;100.00;101081.38;5033528;28;20065;-73
2023/05/03 05:11:50;;;;;;;10.38;5.97;;;;;;;8.35;100.00;101046.06;5030430;28;20283;-73
2023/05/03 05:14:15;;;;;;;9.07;2.97;;;;;;;9.57;100.00;101204.47;5013228;28;20884;-73
2023/05/03 05:16:41;;;;;;;11.23;5.70;;;;;;;10.19;100.00;101229.91;5012510;28;20046;-74
2023/05/03 05:19:07;;;;;;;8.60;5.35;;;;;;;10.57;100.00;101240.97;5010104;28;20042;-74
2023/05/03 05:21:32;;;;;;;8.10;5.90;;;;;;;9.84;100.00;101112.31;5012813;28;20476;-74
2023/05/03 05:23:58;;;;;;;10.15;6.32;;;;;;;11.30;100.00;101253.22;5034531;28;20064;-73
2023/05/03 05:26:25;;;;;;;11.30;5.97;;;;;;;11.10;100.00;101140.06;5029312;28;20046;-76
2023/05/03 05:28:50;;;;;;;9.95;5.35;;;;;;;11.98;100.00;101248.59;5025851;28;20465;-75
2023/05/03 05:31:16;;;;;;;8.00;5.55;;;;;;;12.00;100.00;101299.47;5029992;28;20053;-75
2023/05/03 05:33:41;;;;;;;7.63;4.90;;;;;;;12.32;100.00;101315.53;5006710;28;20050;-74
2023/05/03 05:36:07;;;;;;;7.00;5.07;;;;;;;12.29;100.00;101239.19;5022541;28;20129;-75
2023/05/03 05:38:32;;;;;;;6.80;5.50;;;;;;;13.31;100.00;101359.13;5028551;28;20047;-75
2023/05/03 05:40:58;;;;;;;9.00;4.88;;;;;;;13.27;100.00;101347.72;5027378;28;20045;-73
2023/05/03 05:43:23;;;;;;;9.05;5.75;;;;;;;13.18;100.00;101345.00;5022820;28;20492;-75
2023/05/03 05:45:49;;;;;;;12.55;5.47;;;;;;;13.26;100.00;101226.44;5025108;28;20583;-74
2023/05/03 05:48:14;;;;;;;9.63;5.47;;;;;;;14.34;100.00;101343.50;5039337;28;20083;-74
2023/05/03 05:50:40;;;;;;;7.03;4.10;;;;;;;14.06;100.00;101364.59;5028809;28;20104;-74
2023/05/03 05:53:07;;;;;;;7.43;5.50;;;;;;;14.54;100.00;101376.09;5035302;28;20488;-72
2023/05/03 05:55:33;;;;;;;63.78;15.50;;;;;;;13.63;100.00;101243.22;5026367;28;20833;-75
2023/05/03 05:57:59;;;;;;;7.00;4.72;;;;;;;14.46;100.00;101363.72;5042065;28;20032;-75
2023/05/03 06:00:25;;;;;;;9.50;4.57;;;;;;;12.18;100.00;101235.63;5038566;28;20088;-75
2023/05/03 06:02:50;;;;;;;8.63;5.35;;;;;;;12.62;100.00;101235.00;5030114;28;20037;-73
2023/05/03 06:05:16;;;;;;;5.88;3.67;;;;;;;13.75;100.00;101344.34;5041452;28;20132;-75
2023/05/03 06:07:41;;;;;;;8.75;6.00;;;;;;;13.41;100.00;101209.78;5036890;28;20081;-74
2023/05/03 06:10:07;;;;;;;7.88;3.38;;;;;;;14.99;100.00;101357.50;5027508;28;20049;-74
2023/05/03 06:12:32;;;;;;;6.75;3.42;;;;;;;15.38;100.00;101332.69;5044202;28;20082;-73
2023/05/03 06:14:58;;;;;;;8.20;4.82;;;;;;;15.85;100.00;101300.66;5042377;28;20045;-75
2023/05/03 06:17:25;;;;;;;5.70;3.53;;;;;;;16.45;100.00;101352.22;5032575;28;20152;-76
2023/05/03 06:19:50;;;;;;;5.78;3.03;;;;;;;16.03;100.00;101364.03;5030325;28;20049;-74
2023/05/03 06:22:16;;;;;;;4.50;2.90;;;;;;;15.37;100.00;101256.84;5038841;28;20048;-74
2023/05/03 06:24:41;;;;;;;6.00;3.38;;;;;;;15.67;100.00;101370.44;5038620;28;20020;-75
2023/05/03 06:27:08;;;;;;;5.13;3.22;;;;;;;14.50;100.00;101255.44;5035512;28;20125;-76
2023/05/03 06:29:33;;;;;;;8.15;3.22;;;;;;;15.13;100.00;101350.41;5041234;28;20218;-74
2023/05/03 06:31:59;;;;;;;5.78;3.75;;;;;;;14.38;100.00;101252.84;5035076;28;20045;-73
2023/05/03 06:34:24;;;;;;;5.45;2.72;;;;;;;15.49;100.00;101360.81;5032488;28;20440;-75
2023/05/03 06:36:50;;;;;;;6.90;3.35;;;;;;;15.92;100.00;101385.31;5037726;28;20112;-74
2023/05/03 06:39:16;;;;;;;6.55;3.40;;;;;;;15.06;100.00;101252.63;5028862;28;20029;-74
2023/05/03 06:41:41;;;;;;;4.38;2.83;;;;;;;15.26;100.00;101382.06;5022036;28;20096;-72
2023/05/03 06:44:07;;;;;;;4.05;3.28;;;;;;;14.51;100.00;101370.75;5024335;28;20046;-75
2023/05/03 06:46:33;;;;;;;5.10;2.53;;;;;;;14.45;100.00;101385.75;5026943;28;20120;-75
2023/05/03 06:48:58;;;;;;;4.05;2.60;;;;;;;14.72;100.00;101377.81;5032404;28;20459;-75
2023/05/03 06:51:29;;;;;;;5.82;2.70;;;;;;;15.12;100.00;101396.22;5029407;28;20449;-76
2023/05/03 06:53:55;;;;;;;4.88;3.22;;;;;;;14.22;100.00;101361.97;5040477;28;20056;-76
2023/05/03 06:56:21;;;;;;;5.80;2.65;;;;;;;14.99;100.00;101395.38;5039301;28;20060;-73
2023/05/03 06:58:47;;;;;;;4.90;2.80;;;;;;;13.97;100.00;101289.81;5017398;28;20076;-71
2023/05/03 07:01:12;;;;;;;7.00;3.28;;;;;;;14.52;100.00;101317.06;5024252;28;20096;-71
2023/05/03 07:03:38;;;;;;;4.47;2.90;;;;;;;14.86;100.00;101395.41;5034365;28;20091;-70
2023/05/03 07:06:04;;;;;;;4.90;3.63;;;;;;;14.82;100.00;101354.00;5022398;28;20852;-71
2023/05/03 07:08:30;;;;;;;4.80;2.50;;;;;;;15.15;100.00;101372.44;5028967;28;20092;-71
2023/05/03 07:10:56;;;;;;;4.13;2.70;;;;;;;15.08;100.00;101348.66;5031341;28;20060;-72
2023/05/03 07:13:21;;;;;;;6.75;3.10;;;;;;;14.43;100.00;101361.97;5041597;28;20045;-71
2023/05/03 07:15:47;;;;;;;8.40;4.00;;;;;;;14.70;100.00;101334.69;5030995;28;20073;-71
2023/05/03 07:18:12;;;;;;;5.20;2.40;;;;;;;14.96;100.00;101321.38;5031439;28;20037;-71
2023/05/03 07:20:38;;;;;;;3.05;2.33;;;;;;;14.75;100.00;101308.25;5029783;28;20060;-72
2023/05/03 07:23:05;;;;;;;3.40;2.33;;;;;;;14.54;100.00;101265.16;5040497;28;20048;-71
2023/05/03 07:25:31;;;;;;;42.40;12.88;;;;;;;14.74;100.00;101299.41;5031118;28;20037;-71
2023/05/03 07:27:56;;;;;;;4.15;2.92;;;;;;;15.41;100.00;101372.31;5026704;28;20107;-71
2023/05/03 07:30:22;;;;;;;7.05;2.72;;;;;;;14.69;100.00;101297.69;5009043;28;20429;-70
2023/05/03 07:32:49;;;;;;;5.75;2.88;;;;;;;14.68;100.00;101290.63;5016914;28;20849;-71
2023/05/03 07:35:16;;;;;;;7.28;3.25;;;;;;;15.70;100.00;101402.16;5018385;28;20041;-71
2023/05/03 07:37:42;;;;;;;7.90;2.60;;;;;;;15.12;100.00;101323.97;5025414;28;20057;-71
2023/05/03 07:40:08;;;;;;;5.60;2.92;;;;;;;14.48;100.00;101225.50;5027044;28;20436;-71
2023/05/03 07:42:35;;;;;;;7.65;3.75;;;;;;;15.33;100.00;101382.03;5028259;28;20092;-72
2023/05/03 07:45:01;;;;;;;5.60;3.65;;;;;;;15.19;100.00;101320.41;5023589;28;20073;-71
2023/05/03 07:47:26;;;;;;;5.82;3.63;;;;;;;15.22;100.00;101295.72;5025944;28;20452;-71
2023/05/03 07:49:52;;;;;;;6.47;2.58;;;;;;;15.99;100.00;101412.59;5027203;28;20045;-70
2023/05/03 07:52:18;;;;;;;6.63;3.20;;;;;;;15.75;100.00;101297.19;5025833;28;20048;-74
2023/05/03 07:54:44;;;;;;;6.78;4.20;;;;;;;16.15;100.00;101401.03;5036687;28;20555;-73
2023/05/03 07:57:12;;;;;;;5.82;3.28;;;;;;;15.75;100.00;101414.50;5019410;28;20049;-75
2023/05/03 07:59:38;;;;;;;5.55;2.58;;;;;;;15.48;100.00;101316.75;5022418;28;20724;-74
2023/05/03 08:02:03;;;;;;;7.20;2.97;;;;;;;15.48;100.00;101288.53;5010821;28;20045;-74
2023/05/03 08:04:29;;;;;;;4.07;2.60;;;;;;;16.03;100.00;101407.28;5015992;28;20413;-74
2023/05/03 08:06:54;;;;;;;5.18;2.55;;;;;;;16.10;100.00;101405.47;5024115;28;20033;-76
2023/05/03 08:09:20;;;;;;;3.83;2.47;;;;;;;15.50;100.00;101386.38;5021514;28;20128;-74
2023/05/03 08:11:45;;;;;;;5.88;3.50;;;;;;;15.92;100.00;101421.47;5010035;28;20042;-75
2023/05/03 08:14:11;;;;;;;5.20;2.78;;;;;;;14.92;100.00;101317.00;5014106;28;20045;-74
2023/05/03 08:16:36;;;;;;;4.88;2.78;;;;;;;15.76;100.00;101387.16;5022526;28;20042;-75
2023/05/03 08:19:03;;;;;;;6.95;3.03;;;;;;;15.96;100.00;101444.41;5021518;28;20044;-74
2023/05/03 08:21:29;;;;;;;7.13;1.90;;;;;;;15.79;100.00;101358.03;5025781;28;20037;-74
2023/05/03 08:23:55;;;;;;;3.50;1.83;;;;;;;16.22;100.00;101370.06;5021564;28;20045;-74
2023/05/03 08:26:21;;;;;;;5.07;3.92;;;;;;;16.12;100.00;101447.84;5017228;28;20058;-74
2023/05/03 08:28:46;;;;;;;3.28;2.00;;;;;;;15.74;100.00;101327.22;4996741;28;20046;-75
2023/05/03 08:31:12;;;;;;;4.43;2.80;;;;;;;15.84;100.00;101307.72;5002142;28;20046;-74
2023/05/03 08:33:38;;;;;;;3.30;1.83;;;;;;;16.91;100.00;101432.25;5006021;28;20112;-73
2023/05/03 08:36:04;;;;;;;4.25;2.60;;;;;;;15.67;100.00;101304.28;4996986;28;20043;-73
2023/05/03 08:38:30;;;;;;;4.05;2.35;;;;;;;16.62;100.00;101413.03;4998417;28;20133;-75
2023/05/03 08:41:02;;;;;;;3.72;2.03;;;;;;;16.41;100.00;101421.13;4995679;28;20084;-73
2023/05/03 08:43:29;;;;;;;5.13;2.47;;;;;;;16.42;100.00;101367.28;4997948;28;20240;-73
2023/05/03 08:45:54;;;;;;;7.90;2.95;;;;;;;16.42;100.00;101420.25;4993897;28;20453;-75
2023/05/03 08:48:20;;;;;;;5.20;2.95;;;;;;;16.48;100.00;101406.06;5001499;28;20037;-73
2023/05/03 08:50:47;;;;;;;4.00;2.45;;;;;;;16.67;100.00;101416.50;5015111;28;20148;-73
2023/05/03 08:53:13;;;;;;;5.50;2.35;;;;;;;16.39;100.00;101285.19;5019625;28;20049;-76
2023/05/03 08:55:39;;;;;;;3.75;2.42;;;;;;;16.82;100.00;101311.25;5019821;28;20424;-74
2023/05/03 08:58:11;;;;;;;8.25;3.13;;;;;;;17.09;100.00;101411.72;5022886;28;20060;-74
2023/05/03 09:00:37;;;;;;;6.00;3.58;;;;;;;17.16;100.00;101377.16;5025241;28;20100;-75
2023/05/03 09:03:03;;;;;;;3.75;2.05;;;;;;;17.22;100.00;101302.81;5018451;28;20650;-74
2023/05/03 09:05:37;;;;;;;4.65;2.15;;;;;;;16.51;100.00;101269.16;5036093;28;20072;-73
2023/05/03 09:08:07;;;;;;;5.78;2.45;;;;;;;17.19;100.00;101396.56;5018478;28;20044;-74
2023/05/03 09:10:36;;;;;;;3.50;2.30;;;;;;;16.22;100.00;101283.59;5021646;28;20885;-74
2023/05/03 09:13:02;;;;;;;6.55;1.70;;;;;;;17.19;100.00;101385.97;5025476;28;20025;-74
2023/05/03 09:15:30;;;;;;;4.43;2.17;;;;;;;17.16;94.99;101371.84;5025941;28;20630;-74
2023/05/03 09:18:15;;;;;;;5.03;3.15;;;;;;;17.17;93.58;101369.19;5030280;28;20076;-70
2023/05/03 09:20:44;;;;;;;6.97;4.90;;;;;;;17.44;96.09;101383.91;5026039;28;20041;-70
2023/05/03 09:23:10;;;;;;;11.40;6.13;;;;;;;16.61;100.00;101286.72;5043083;28;20056;-71
2023/05/03 09:25:42;;;;;;;4.18;3.50;;;;;;;17.17;100.00;101392.19;5023190;28;20779;-70
2023/05/03 09:28:08;;;;;;;22.58;19.98;;;;;;;17.58;100.00;101351.84;5020166;28;20517;-71
2023/05/03 09:30:33;;;;;;;4.57;3.47;;;;;;;17.51;100.00;101374.97;5026133;28;20041;-70
2023/05/03 09:32:59;;;;;;;12.43;7.00;;;;;;;16.80;100.00;101268.84;5029006;28;20233;-70
2023/05/03 09:35:24;;;;;;;4.15;2.35;;;;;;;16.43;100.00;101281.59;5027403;28;20088;-70
2023/05/03 09:37:50;;;;;;;5.88;2.90;;;;;;;17.75;100.00;101364.91;5014658;28;20060;-70
2023/05/03 09:40:17;;;;;;;6.03;5.28;;;;;;;18.32;100.00;101350.75;5007895;28;20093;-70
2023/05/03 09:43:07;;;;;;;11.73;8.65;;;;;;;18.41;100.00;101360.34;5019485;28;20033;-70
2023/05/03 09:45:33;;;;;;;9.90;7.40;;;;;;;18.03;100.00;101348.59;5024315;28;20056;-70
2023/05/03 09:48:01;;;;;;;10.50;6.72;;;;;;;16.88;100.00;101252.88;5029262;28;20045;-70
2023/05/03 09:50:27;;;;;;;7.43;4.75;;;;;;;16.69;100.00;101228.31;5044206;28;20050;-70
2023/05/03 09:52:55;;;;;;;4.20;2.63;;;;;;;17.89;100.00;101347.00;5013504;28;20042;-70
2023/05/03 09:55:22;;;;;;;6.22;3.70;;;;;;;18.58;100.00;101358.25;5023030;28;20115;-72
2023/05/03 09:57:49;;;;;;;6.28;5.13;;;;;;;18.30;100.00;101342.78;5027829;28;20033;-71
2023/05/03 10:00:16;;;;;;;3.47;1.88;;;;;;;17.33;100.00;101367.22;5029493;28;20036;-71
2023/05/03 10:02:41;;;;;;;4.72;2.88;;;;;;;17.78;100.00;101353.34;5020650;28;20122;-70
2023/05/03 10:05:10;;;;;;;8.23;4.85;;;;;;;17.98;100.00;101276.06;5029014;28;20100;-71
2023/05/03 10:07:39;;;;;;;2.92;2.03;;;;;;;18.37;100.00;101305.50;5025681;28;20057;-70
2023/05/03 10:10:06;;;;;;;3.15;1.70;;;;;;;17.23;100.00;101255.06;5028894;28;20520;-69
2023/05/03 10:12:34;;;;;;;6.55;2.47;;;;;;;17.43;100.00;101338.78;5027373;28;20030;-70
2023/05/03 10:15:06;;;;;;;2.95;1.70;;;;;;;17.59;100.00;101347.44;5028564;28;20064;-73
2023/05/03 10:17:36;;;;;;;2.90;1.95;;;;;;;17.46;100.00;101320.16;5029171;28;20072;-75
2023/05/03 10:20:11;;;;;;;3.80;2.50;;;;;;;17.11;100.00;101249.91;5027442;28;20447;-75
2023/05/03 10:23:05;;;;;;;3.33;1.70;;;;;;;17.25;100.00;101337.25;5027344;28;20044;-75
2023/05/03 10:25:35;;;;;;;6.28;2.33;;;;;;;16.47;100.00;101238.28;5023025;28;20060;-73
2023/05/03 10:28:08;;;;;;;9.27;1.85;;;;;;;16.97;100.00;101336.72;5029286;28;20133;-74
2023/05/03 10:30:38;;;;;;;7.05;2.72;;;;;;;17.06;100.00;101252.63;5027498;28;20063;-72
2023/05/03 10:33:13;;;;;;;3.63;2.03;;;;;;;17.76;100.00;101340.09;5028429;28;20048;-75
2023/05/03 10:35:40;;;;;;;4.40;2.30;;;;;;;17.54;100.00;101305.03;5027999;28;20053;-74
2023/05/03 10:38:16;;;;;;;4.30;2.88;;;;;;;17.67;100.00;101313.69;5015608;28;20125;-73
2023/05/03 10:40:43;;;;;;;4.38;2.50;;;;;;;18.21;100.00;101311.06;5022849;28;20046;-73
2023/05/03 10:43:33;;;;;;;3.65;2.08;;;;;;;19.13;100.00;101325.31;5016185;28;20480;-74
2023/05/03 10:46:00;;;;;;;7.43;3.25;;;;;;;19.08;100.00;101335.19;5015113;28;20037;-73
2023/05/03 10:48:27;;;;;;;3.92;1.98;;;;;;;19.48;92.96;101224.31;5021478;28;20064;-73
2023/05/03 10:50:53;;;;;;;4.40;2.72;;;;;;;20.27;88.28;101296.06;5027920;28;20132;-73
2023/05/03 10:53:34;;;;;;;7.03;2.80;;;;;;;20.53;88.72;101342.47;5027906;28;20568;-75
2023/05/03 10:56:07;;;;;;;6.10;1.90;;;;;;;18.66;90.52;101223.44;5020483;28;20085;-74
2023/05/03 10:58:38;;;;;;;3.40;1.77;;;;;;;18.91;92.06;101228.25;5026108;28;20109;-72
2023/05/03 11:01:05;;;;;;;5.18;2.15;;;;;;;19.27;97.18;101282.47;5025827;28;20108;-73
2023/05/03 11:04:00;;;;;;;3.85;2.17;;;;;;;18.87;92.15;101198.22;5007204;28;20029;-74
2023/05/03 11:06:34;;;;;;;4.05;2.00;;;;;;;18.61;95.89;101201.34;5021986;28;20490;-74
2023/05/03 11:09:02;;;;;;;3.72;2.10;;;;;;;18.61;94.20;101281.09;5027246;28;20053;-74
2023/05/03 11:11:28;;;;;;;3.45;2.10;;;;;;;18.70;89.99;101187.00;5028350;28;20444;-73
2023/05/03 11:13:54;;;;;;;5.80;2.38;;;;;;;18.91;91.48;101292.09;5012963;28;20050;-75
2023/05/03 11:16:20;;;;;;;3.45;1.75;;;;;;;18.47;90.93;101190.13;5008333;28;20038;-74
2023/05/03 11:18:47;;;;;;;5.93;1.88;;;;;;;18.84;91.67;101286.00;5009013;28;20065;-73
2023/05/03 11:21:14;;;;;;;2.78;1.77;;;;;;;18.11;89.65;101184.63;5009142;28;20037;-73
2023/05/03 11:23:40;;;;;;;8.95;3.45;;;;;;;18.85;92.98;101284.25;5022246;28;20413;-74
2023/05/03 11:26:06;;;;;;;6.85;5.80;;;;;;;19.21;95.42;101282.59;5028172;28;20054;-75